Time;durP1;ratioP1;P1;durP2;ratioP2;P2;SDS_P1;SDS_P2;PMS_P1;PMS_P2;Temp;Humidity;BMP_temperature;BMP_pressure;BME280_temperature;BME280_humidity;BME280_pressure;Samples;Min_cycle;Max_cycle;Signal;HPM_P1;HPM_P2
2022/10/27 00:00:32;;;;;;;1999.90;999.90;;;15.00;99.90;;;;;;5075087;28;20181;-64
2022/10/27 00:02:58;;;;;;;1999.90;999.90;;;15.00;99.90;;;;;;5074978;28;20404;-64
2022/10/27 00:05:24;;;;;;;1999.90;999.90;;;15.10;99.90;;;;;;5074995;28;20461;-63
2022/10/27 00:07:50;;;;;;;1999.90;999.90;;;15.00;99.90;;;;;;5074355;28;20448;-64
2022/10/27 00:10:16;;;;;;;1999.90;999.90;;;15.00;99.90;;;;;;5074801;28;20712;-64
2022/10/27 00:12:42;;;;;;;1999.90;999.90;;;15.00;99.90;;;;;;5074835;28;20403;-65
2022/10/27 00:15:08;;;;;;;1999.90;999.90;;;15.00;99.90;;;;;;5074790;28;20412;-63
2022/10/27 00:17:34;;;;;;;1999.90;999.90;;;15.00;99.90;;;;;;5074245;28;20244;-64
2022/10/27 00:20:00;;;;;;;1999.90;999.90;;;14.90;99.90;;;;;;5074690;28;20500;-64
2022/10/27 00:22:25;;;;;;;1999.90;999.90;;;14.80;99.90;;;;;;5074654;28;20299;-64
2022/10/27 00:24:51;;;;;;;1999.90;999.90;;;14.90;99.90;;;;;;5074611;28;20176;-65
2022/10/27 00:27:17;;;;;;;1999.90;999.90;;;14.90;99.90;;;;;;5074300;28;20171;-64
2022/10/27 00:29:42;;;;;;;1999.90;999.90;;;15.00;99.90;;;;;;5074367;28;20248;-64
2022/10/27 00:32:08;;;;;;;1999.90;999.90;;;15.00;99.90;;;;;;5074476;28;20170;-64
2022/10/27 00:34:33;;;;;;;1999.90;999.90;;;15.10;99.90;;;;;;5074364;28;20172;-64
2022/10/27 00:36:59;;;;;;;1999.90;999.90;;;15.20;99.90;;;;;;5074167;28;20202;-64
2022/10/27 00:39:24;;;;;;;1999.90;999.90;;;15.20;99.90;;;;;;5074190;28;20661;-64
2022/10/27 00:41:50;;;;;;;1999.90;999.90;;;15.20;99.90;;;;;;5074238;28;20202;-64
2022/10/27 00:44:36;;;;;;;1999.90;999.90;;;15.10;99.90;;;;;;5074338;28;20187;-65
2022/10/27 00:47:05;;;;;;;1999.90;999.90;;;15.10;99.90;;;;;;5072794;28;20176;-64
2022/10/27 00:49:45;;;;;;;1999.90;999.90;;;15.10;99.90;;;;;;5073954;28;20461;-64
2022/10/27 00:52:29;;;;;;;1999.90;999.90;;;15.10;99.90;;;;;;5074208;28;20395;-64
2022/10/27 00:55:00;;;;;;;1999.90;999.90;;;15.00;99.90;;;;;;5074101;28;20454;-64
2022/10/27 00:57:27;;;;;;;1999.90;999.90;;;15.00;99.90;;;;;;5074086;28;20948;-64
2022/10/27 00:59:53;;;;;;;1999.90;999.90;;;15.00;99.90;;;;;;5073843;28;20401;-64
2022/10/27 01:02:18;;;;;;;1999.90;999.90;;;15.00;99.90;;;;;;5073966;28;20403;-64
2022/10/27 01:04:53;;;;;;;1999.90;999.90;;;15.00;99.90;;;;;;5073881;28;20171;-64
2022/10/27 01:07:20;;;;;;;1999.90;999.90;;;14.90;99.90;;;;;;5073524;28;20193;-65
2022/10/27 01:09:46;;;;;;;1999.90;999.90;;;14.90;99.90;;;;;;5134199;22;20482;-66
2022/10/27 01:12:12;;;;;;;1999.90;999.90;;;14.90;99.90;;;;;;5096753;28;20467;-66
2022/10/27 01:14:37;;;;;;;1999.90;999.90;;;14.90;99.90;;;;;;5096957;28;20480;-66
2022/10/27 01:17:24;;;;;;;1999.90;999.90;;;14.90;99.90;;;;;;5097181;28;20697;-66
2022/10/27 01:20:17;;;;;;;1999.90;999.90;;;14.80;99.90;;;;;;5094217;28;20192;-66
2022/10/27 01:22:49;;;;;;;1999.90;999.90;;;14.80;99.90;;;;;;5094336;28;20496;-66
2022/10/27 01:25:20;;;;;;;1999.90;999.90;;;14.70;99.90;;;;;;5094090;28;20405;-66
2022/10/27 01:27:58;;;;;;;1999.90;999.90;;;14.70;99.90;;;;;;5093907;28;20491;-66
2022/10/27 01:30:23;;;;;;;1999.90;999.90;;;14.70;99.90;;;;;;5094163;28;20454;-66
2022/10/27 01:33:12;;;;;;;1999.90;999.90;;;14.60;99.90;;;;;;5093886;28;20402;-66
2022/10/27 01:35:47;;;;;;;1999.90;999.90;;;14.60;99.90;;;;;;5093543;28;20196;-66
2022/10/27 01:38:23;;;;;;;1999.90;999.90;;;14.60;99.90;;;;;;5093745;28;20422;-66
2022/10/27 01:40:55;;;;;;;1999.90;999.90;;;14.50;99.90;;;;;;5093775;28;20390;-69
2022/10/27 01:43:24;;;;;;;1999.90;999.90;;;14.50;99.90;;;;;;5094163;28;20399;-69
2022/10/27 01:45:52;;;;;;;1999.90;999.90;;;14.40;99.90;;;;;;5093701;28;20435;-69
2022/10/27 01:48:18;;;;;;;1999.90;999.90;;;14.40;99.90;;;;;;5093326;28;20435;-69
2022/10/27 01:50:44;;;;;;;1999.90;999.90;;;14.40;99.90;;;;;;5093588;28;20408;-69
2022/10/27 01:53:10;;;;;;;1999.90;999.90;;;14.40;99.90;;;;;;5093573;28;20404;-69
2022/10/27 01:56:03;;;;;;;1999.90;999.90;;;14.40;99.90;;;;;;5093332;28;20408;-69
2022/10/27 01:58:29;;;;;;;1999.90;999.90;;;14.40;99.90;;;;;;5093158;28;20958;-69
2022/10/27 02:00:54;;;;;;;1999.90;999.90;;;14.30;99.90;;;;;;5093550;28;20411;-69
2022/10/27 02:03:31;;;;;;;1999.90;999.90;;;14.30;99.90;;;;;;5093459;28;20256;-69
2022/10/27 02:06:08;;;;;;;1999.90;999.90;;;14.50;99.90;;;;;;5093482;28;20161;-69
2022/10/27 02:08:36;;;;;;;1999.90;999.90;;;14.50;99.90;;;;;;5093345;28;20460;-69
2022/10/27 02:11:07;;;;;;;1999.90;999.90;;;14.60;99.90;;;;;;5093696;28;20417;-69
2022/10/27 02:13:38;;;;;;;1999.90;999.90;;;14.60;99.90;;;;;;5093378;28;20404;-68
2022/10/27 02:16:07;;;;;;;1999.90;999.90;;;14.70;99.90;;;;;;5093406;28;20393;-69
2022/10/27 02:18:37;;;;;;;1999.90;999.90;;;14.80;99.90;;;;;;5093172;28;20427;-69
2022/10/27 02:21:07;;;;;;;1999.90;999.90;;;14.80;99.90;;;;;;5093399;28;20770;-69
2022/10/27 02:23:34;;;;;;;1999.90;999.90;;;14.70;99.90;;;;;;5093526;28;20400;-69
2022/10/27 02:26:13;;;;;;;1999.90;999.90;;;14.70;99.90;;;;;;5092817;28;20397;-69
2022/10/27 02:29:03;;;;;;;1999.90;999.90;;;14.60;99.90;;;;;;5092750;28;20521;-69
2022/10/27 02:31:40;;;;;;;1999.90;999.90;;;14.60;99.90;;;;;;5093339;28;20744;-69
2022/10/27 02:34:06;;;;;;;1999.90;999.90;;;14.60;99.90;;;;;;5093228;28;20437;-69
2022/10/27 02:36:32;;;;;;;1999.90;999.90;;;14.40;99.90;;;;;;5093509;28;20765;-68
2022/10/27 02:38:58;;;;;;;1999.90;999.90;;;14.30;99.90;;;;;;5092893;28;20523;-69
2022/10/27 02:41:23;;;;;;;1999.90;999.90;;;14.20;99.90;;;;;;5093261;28;20813;-68
2022/10/27 02:43:49;;;;;;;1999.90;999.90;;;14.20;99.90;;;;;;5092963;28;20699;-69
2022/10/27 02:46:14;;;;;;;1999.90;999.90;;;14.20;99.90;;;;;;5092908;28;20168;-69
2022/10/27 02:48:40;;;;;;;1999.90;999.90;;;14.10;99.90;;;;;;5091894;28;20265;-69
2022/10/27 02:51:06;;;;;;;1999.90;999.90;;;14.10;99.90;;;;;;5093268;28;20181;-68
2022/10/27 02:53:31;;;;;;;1999.90;999.90;;;14.00;99.90;;;;;;5093608;28;20692;-69
2022/10/27 02:55:57;;;;;;;1999.90;999.90;;;14.00;99.90;;;;;;5092959;28;20767;-69
2022/10/27 02:58:22;;;;;;;1999.90;999.90;;;14.00;99.90;;;;;;5092676;28;20188;-69
2022/10/27 03:00:55;;;;;;;1999.90;999.90;;;14.00;99.90;;;;;;5092855;28;20530;-69
2022/10/27 03:03:21;;;;;;;1999.90;999.90;;;14.00;99.90;;;;;;5092655;28;20176;-69
2022/10/27 03:05:47;;;;;;;1999.90;999.90;;;13.90;99.90;;;;;;5092834;28;20490;-69
2022/10/27 03:08:13;;;;;;;1999.90;999.90;;;13.90;99.90;;;;;;5092209;28;20958;-69
2022/10/27 03:10:38;;;;;;;1999.90;999.90;;;13.90;99.90;;;;;;5094331;28;20537;-68
2022/10/27 03:13:04;;;;;;;1999.90;999.90;;;13.90;99.90;;;;;;5096725;28;20617;-69
2022/10/27 03:15:30;;;;;;;1999.90;999.90;;;13.90;99.90;;;;;;5096895;28;20170;-68
2022/10/27 03:17:55;;;;;;;1999.90;999.90;;;13.80;99.90;;;;;;5096588;28;20195;-69
2022/10/27 03:20:21;;;;;;;1999.90;999.90;;;13.80;99.90;;;;;;5096505;28;20180;-69
2022/10/27 03:22:46;;;;;;;1999.90;999.90;;;13.90;99.90;;;;;;5077975;28;20223;-69
2022/10/27 03:25:13;;;;;;;1999.90;999.90;;;13.90;99.90;;;;;;5095928;28;20184;-69
2022/10/27 03:27:41;;;;;;;1999.90;999.90;;;13.90;99.90;;;;;;5095792;28;20261;-69
2022/10/27 03:30:08;;;;;;;1999.90;999.90;;;13.90;99.90;;;;;;5098620;28;20453;-69
2022/10/27 03:32:34;;;;;;;1999.90;999.90;;;13.90;99.90;;;;;;5098123;28;20415;-68
2022/10/27 03:34:59;;;;;;;1999.90;999.90;;;13.90;99.90;;;;;;5098933;28;20492;-68
2022/10/27 03:37:25;;;;;;;1999.90;999.90;;;13.90;99.90;;;;;;5099201;28;20172;-69
2022/10/27 03:39:51;;;;;;;1999.90;999.90;;;13.90;99.90;;;;;;5098637;28;20681;-68
2022/10/27 03:42:16;;;;;;;1999.90;999.90;;;13.80;99.90;;;;;;5096521;28;20174;-69
2022/10/27 03:44:42;;;;;;;1999.90;999.90;;;13.80;99.90;;;;;;5096048;28;20199;-68
2022/10/27 03:47:08;;;;;;;1999.90;999.90;;;13.70;99.90;;;;;;5095626;28;20295;-69
2022/10/27 03:49:34;;;;;;;1999.90;999.90;;;13.70;99.90;;;;;;5095710;28;20619;-69
2022/10/27 03:51:59;;;;;;;1999.90;999.90;;;13.70;99.90;;;;;;5095793;28;20413;-69
2022/10/27 03:54:29;;;;;;;1999.90;999.90;;;13.70;99.90;;;;;;5097239;28;20168;-68
2022/10/27 03:56:54;;;;;;;1999.90;999.90;;;13.70;99.90;;;;;;5096654;28;20178;-69
2022/10/27 03:59:20;;;;;;;1999.90;999.90;;;13.70;99.90;;;;;;5095303;28;20512;-69
2022/10/27 04:01:45;;;;;;;1999.90;999.90;;;13.60;99.90;;;;;;5097008;28;20166;-68
2022/10/27 04:04:11;;;;;;;1999.90;999.90;;;13.60;99.90;;;;;;5098524;28;20176;-69
2022/10/27 04:06:37;;;;;;;1999.90;999.90;;;13.60;99.90;;;;;;5098463;28;20168;-68
2022/10/27 04:09:02;;;;;;;1999.90;999.90;;;13.60;99.90;;;;;;5098499;28;20202;-69
2022/10/27 04:11:28;;;;;;;1999.90;999.90;;;13.60;99.90;;;;;;5098274;28;20183;-68
2022/10/27 04:13:53;;;;;;;1999.90;999.90;;;13.60;99.90;;;;;;5098032;28;20172;-68
2022/10/27 04:16:19;;;;;;;1999.90;999.90;;;13.50;99.90;;;;;;5097688;28;20166;-69
2022/10/27 04:18:45;;;;;;;1999.90;999.90;;;13.50;99.90;;;;;;5097841;28;20197;-69
2022/10/27 04:21:11;;;;;;;1999.90;999.90;;;13.50;99.90;;;;;;5098026;28;20599;-68
2022/10/27 04:23:36;;;;;;;1999.90;999.90;;;13.50;99.90;;;;;;5098229;28;20451;-69
2022/10/27 04:26:02;;;;;;;1999.90;999.90;;;13.50;99.90;;;;;;5098336;28;20168;-69
2022/10/27 04:28:28;;;;;;;1999.90;999.90;;;13.50;99.90;;;;;;5097972;28;20267;-68
2022/10/27 04:30:54;;;;;;;1999.90;999.90;;;13.50;99.90;;;;;;5098588;28;20180;-68
2022/10/27 04:33:19;;;;;;;1999.90;999.90;;;13.50;99.90;;;;;;5098603;28;20197;-69
2022/10/27 04:35:45;;;;;;;1999.90;999.90;;;13.50;99.90;;;;;;5097404;28;20169;-69
2022/10/27 04:38:10;;;;;;;1999.90;999.90;;;13.40;99.90;;;;;;5095169;28;20658;-69
2022/10/27 04:40:36;;;;;;;1999.90;999.90;;;13.40;99.90;;;;;;5095369;28;20537;-69
2022/10/27 04:43:01;;;;;;;1999.90;999.90;;;13.30;99.90;;;;;;5095272;28;20277;-68
2022/10/27 04:45:27;;;;;;;1999.90;999.90;;;13.30;99.90;;;;;;5095537;28;20172;-69
2022/10/27 04:47:52;;;;;;;1999.90;999.90;;;13.40;99.90;;;;;;5095574;28;20257;-69
2022/10/27 04:50:18;;;;;;;1999.90;999.90;;;13.30;99.90;;;;;;5095301;28;20207;-69
2022/10/27 04:53:00;;;;;;;1999.90;999.90;;;13.20;99.90;;;;;;5095447;28;20651;-69
2022/10/27 04:55:28;;;;;;;1999.90;999.90;;;13.20;99.90;;;;;;5095377;28;20194;-69
2022/10/27 04:57:53;;;;;;;1999.90;999.90;;;13.20;99.90;;;;;;5095071;28;20406;-69
2022/10/27 05:00:20;;;;;;;1999.90;999.90;;;13.20;99.90;;;;;;5095258;28;20877;-69
2022/10/27 05:02:55;;;;;;;1999.90;999.90;;;13.20;99.90;;;;;;5095201;28;20421;-69
2022/10/27 05:05:21;;;;;;;1999.90;999.90;;;13.20;99.90;;;;;;5094974;28;20405;-69
2022/10/27 05:07:59;;;;;;;1999.90;999.90;;;13.20;99.90;;;;;;5094595;28;20408;-69
2022/10/27 05:10:26;;;;;;;1999.90;999.90;;;13.10;99.90;;;;;;5094959;28;20458;-69
2022/10/27 05:12:51;;;;;;;1999.90;999.90;;;13.10;99.90;;;;;;5095126;28;20490;-69
2022/10/27 05:15:17;;;;;;;1999.90;999.90;;;13.00;99.90;;;;;;5094678;28;20835;-69
2022/10/27 05:17:43;;;;;;;1999.90;999.90;;;13.00;99.90;;;;;;5094438;28;20164;-69
2022/10/27 05:20:09;;;;;;;1999.90;999.90;;;13.00;99.90;;;;;;5094659;28;20179;-69
2022/10/27 05:22:34;;;;;;;1999.90;999.90;;;13.00;99.90;;;;;;5094880;28;20537;-69
2022/10/27 05:25:00;;;;;;;1999.90;999.90;;;12.90;99.90;;;;;;5094591;28;20487;-69
2022/10/27 05:27:26;;;;;;;1999.90;999.90;;;12.90;99.90;;;;;;5093995;28;20269;-69
2022/10/27 05:29:51;;;;;;;1999.90;999.90;;;12.90;99.90;;;;;;5094293;28;20213;-70
2022/10/27 05:32:17;;;;;;;1999.90;999.90;;;12.80;99.90;;;;;;5094545;28;20167;-69
2022/10/27 05:34:43;;;;;;;1999.90;999.90;;;12.90;99.90;;;;;;5093997;28;20553;-69
2022/10/27 05:37:09;;;;;;;1999.90;999.90;;;12.80;99.90;;;;;;5094485;28;20171;-69
2022/10/27 05:39:35;;;;;;;1999.90;999.90;;;12.80;99.90;;;;;;5094180;28;20198;-69
2022/10/27 05:42:00;;;;;;;1999.90;999.90;;;12.80;99.90;;;;;;5094483;28;20393;-69
2022/10/27 05:44:26;;;;;;;1999.90;999.90;;;12.70;99.90;;;;;;5094327;28;20175;-69
2022/10/27 05:46:51;;;;;;;1999.90;999.90;;;12.70;99.90;;;;;;5094219;28;20166;-69
2022/10/27 05:49:17;;;;;;;1999.90;999.90;;;12.70;99.90;;;;;;5095293;28;20585;-68
2022/10/27 05:51:42;;;;;;;1999.90;999.90;;;12.70;99.90;;;;;;5096452;28;20162;-68
2022/10/27 05:54:08;;;;;;;1999.90;999.90;;;12.70;99.90;;;;;;5094583;28;20178;-69
2022/10/27 05:56:34;;;;;;;1999.90;999.90;;;12.70;99.90;;;;;;5094596;28;20529;-69
2022/10/27 05:58:59;;;;;;;1999.90;999.90;;;12.70;99.90;;;;;;5094446;28;20194;-68
2022/10/27 06:01:25;;;;;;;1999.90;999.90;;;12.60;99.90;;;;;;5094548;28;20183;-68
2022/10/27 06:03:50;;;;;;;1999.90;999.90;;;12.60;99.90;;;;;;5094523;28;20247;-69
2022/10/27 06:06:16;;;;;;;1999.90;999.90;;;12.60;99.90;;;;;;5094298;28;20174;-69
2022/10/27 06:08:42;;;;;;;1999.90;999.90;;;12.50;99.90;;;;;;5093879;28;20207;-68
2022/10/27 06:11:07;;;;;;;1999.90;999.90;;;12.50;99.90;;;;;;5094307;28;20198;-69
2022/10/27 06:13:33;;;;;;;1999.90;999.90;;;12.40;99.90;;;;;;5093911;28;20542;-68
2022/10/27 06:15:59;;;;;;;1999.90;999.90;;;12.40;99.90;;;;;;5093739;28;20525;-69
2022/10/27 06:18:24;;;;;;;1999.90;999.90;;;12.40;99.90;;;;;;5093511;28;20188;-69
2022/10/27 06:20:50;;;;;;;1999.90;999.90;;;12.50;99.90;;;;;;5092962;28;20174;-69
2022/10/27 06:23:15;;;;;;;1999.90;999.90;;;12.50;99.90;;;;;;5093473;28;20235;-69
2022/10/27 06:25:41;;;;;;;1999.90;999.90;;;12.50;99.90;;;;;;5093365;28;20162;-68
2022/10/27 06:28:07;;;;;;;1999.90;999.90;;;12.50;99.90;;;;;;5092970;28;20186;-69
2022/10/27 06:30:32;;;;;;;1999.90;999.90;;;12.50;99.90;;;;;;5092876;28;20194;-69
2022/10/27 06:32:58;;;;;;;1999.90;999.90;;;12.50;99.90;;;;;;5093126;28;20168;-69
2022/10/27 06:35:24;;;;;;;1999.90;999.90;;;12.50;99.90;;;;;;5093181;28;20172;-69
2022/10/27 06:37:49;;;;;;;1999.90;999.90;;;12.60;99.90;;;;;;5092577;28;20163;-69
2022/10/27 06:40:17;;;;;;;1999.90;999.90;;;12.60;99.90;;;;;;5092972;28;20537;-68
2022/10/27 06:42:43;;;;;;;1999.90;999.90;;;12.60;99.90;;;;;;5092932;28;20173;-69
2022/10/27 06:45:09;;;;;;;1999.90;999.90;;;12.60;99.90;;;;;;5092711;28;20406;-68
2022/10/27 06:47:35;;;;;;;1999.90;999.90;;;12.60;99.90;;;;;;5092618;28;20413;-69
2022/10/27 06:50:00;;;;;;;1999.90;999.90;;;12.70;99.90;;;;;;5092774;28;20505;-69
2022/10/27 06:52:27;;;;;;;1999.90;999.90;;;12.70;99.90;;;;;;5092957;28;20677;-69
2022/10/27 06:54:52;;;;;;;1999.90;999.90;;;12.70;99.90;;;;;;5092677;28;20178;-69
2022/10/27 06:57:18;;;;;;;1999.90;999.90;;;12.80;99.90;;;;;;5092467;28;20410;-69
2022/10/27 06:59:43;;;;;;;1999.90;999.90;;;12.80;99.90;;;;;;5092497;28;20668;-69
2022/10/27 07:02:11;;;;;;;1999.90;999.90;;;12.90;99.90;;;;;;5092835;28;20207;-69
2022/10/27 07:04:37;;;;;;;1999.90;999.90;;;12.90;99.90;;;;;;5092590;28;20182;-69
2022/10/27 07:07:03;;;;;;;1999.90;999.90;;;12.90;99.90;;;;;;5092501;28;20497;-69
2022/10/27 07:09:28;;;;;;;1999.90;999.90;;;13.00;99.90;;;;;;5094151;28;20496;-68
2022/10/27 07:11:54;;;;;;;1999.90;999.90;;;13.00;99.90;;;;;;5092822;28;20414;-68
2022/10/27 07:14:19;;;;;;;1999.90;999.90;;;13.10;99.90;;;;;;5092329;28;20175;-69
2022/10/27 07:16:45;;;;;;;1999.90;999.90;;;13.10;99.90;;;;;;5091998;28;20859;-69
2022/10/27 07:19:10;;;;;;;1999.90;999.90;;;13.20;99.90;;;;;;5092455;28;20218;-69
2022/10/27 07:21:36;;;;;;;1999.90;999.90;;;13.20;99.90;;;;;;5093864;28;20179;-68
2022/10/27 07:24:02;;;;;;;1999.90;999.90;;;13.20;99.90;;;;;;5092808;28;20178;-68
2022/10/27 07:26:27;;;;;;;1999.90;999.90;;;13.30;99.90;;;;;;5091855;28;20849;-69
2022/10/27 07:28:53;;;;;;;1999.90;999.90;;;13.40;99.90;;;;;;5091405;28;20287;-69
2022/10/27 07:31:18;;;;;;;1999.90;999.90;;;13.40;99.90;;;;;;5091885;28;20568;-69
2022/10/27 07:33:44;;;;;;;1999.90;999.90;;;13.50;99.90;;;;;;5091815;28;20254;-69
2022/10/27 07:36:09;;;;;;;1999.90;999.90;;;13.60;99.90;;;;;;5091845;28;20231;-69
2022/10/27 07:38:37;;;;;;;1999.90;999.90;;;13.70;99.90;;;;;;5091540;28;20269;-69
2022/10/27 07:41:02;;;;;;;1999.90;999.90;;;13.80;99.90;;;;;;5092212;28;20180;-68
2022/10/27 07:43:28;;;;;;;1999.90;999.90;;;13.80;99.90;;;;;;5092320;28;20400;-69
2022/10/27 07:45:53;;;;;;;1999.90;999.90;;;13.80;99.90;;;;;;5092546;28;20643;-69
2022/10/27 07:48:19;;;;;;;1999.90;999.90;;;14.00;99.90;;;;;;5092280;28;20592;-69
2022/10/27 07:50:45;;;;;;;1999.90;999.90;;;14.00;99.90;;;;;;5092069;28;20171;-68
2022/10/27 07:53:11;;;;;;;1999.90;999.90;;;14.10;99.90;;;;;;5092290;28;20169;-69
2022/10/27 07:55:37;;;;;;;1999.90;999.90;;;14.20;99.90;;;;;;5092175;28;20304;-69
2022/10/27 07:58:08;;;;;;;1999.90;999.90;;;14.30;99.90;;;;;;5095204;28;20908;-69
2022/10/27 08:00:36;;;;;;;1999.90;999.90;;;14.30;99.90;;;;;;5095731;28;20239;-69
2022/10/27 08:03:04;;;;;;;1999.90;999.90;;;14.40;99.90;;;;;;5095895;28;20899;-69
2022/10/27 08:05:32;;;;;;;1999.90;999.90;;;14.50;99.90;;;;;;5095778;28;20411;-69
2022/10/27 08:08:03;;;;;;;1999.90;999.90;;;14.60;99.90;;;;;;5095216;28;20464;-69
2022/10/27 08:10:30;;;;;;;1999.90;999.90;;;14.70;99.90;;;;;;5095445;28;20830;-69
2022/10/27 08:12:56;;;;;;;1999.90;999.90;;;14.80;99.90;;;;;;5095507;28;20910;-69
2022/10/27 08:15:22;;;;;;;1999.90;999.90;;;14.90;99.90;;;;;;5095581;28;20489;-69
2022/10/27 08:17:58;;;;;;;1999.90;999.90;;;14.90;99.90;;;;;;5094962;28;20173;-69
2022/10/27 08:20:24;;;;;;;1999.90;999.90;;;15.00;99.90;;;;;;5095450;28;20175;-69
2022/10/27 08:22:55;;;;;;;1999.90;999.90;;;15.10;99.90;;;;;;5095329;28;20396;-69
2022/10/27 08:25:20;;;;;;;1999.90;999.90;;;15.30;99.90;;;;;;5095426;28;20543;-69
2022/10/27 08:27:46;;;;;;;1999.90;999.90;;;15.30;99.90;;;;;;5094878;28;20913;-69
2022/10/27 08:30:11;;;;;;;1999.90;999.90;;;15.50;99.90;;;;;;5095071;28;20207;-69
2022/10/27 08:32:37;;;;;;;1999.90;999.90;;;15.60;99.90;;;;;;5095334;28;20175;-69
2022/10/27 08:35:03;;;;;;;1999.90;999.90;;;15.70;99.90;;;;;;5094969;28;20668;-69
2022/10/27 08:37:28;;;;;;;1999.90;999.90;;;15.80;99.90;;;;;;5094742;28;20545;-69
2022/10/27 08:39:54;;;;;;;1999.90;999.90;;;15.90;99.90;;;;;;5094985;28;20670;-69
2022/10/27 08:43:00;;;;;;;1999.90;999.90;;;16.00;99.90;;;;;;5094839;28;20175;-69
2022/10/27 08:45:33;;;;;;;1999.90;999.90;;;16.20;99.90;;;;;;5094951;28;20196;-69
2022/10/27 08:48:00;;;;;;;1999.90;999.90;;;16.30;99.90;;;;;;5094608;28;20848;-68
2022/10/27 08:50:41;;;;;;;1999.90;999.90;;;16.40;99.90;;;;;;5094014;28;20541;-69
2022/10/27 08:53:11;;;;;;;1999.90;999.90;;;16.50;99.90;;;;;;5096201;28;20426;-69
2022/10/27 08:55:51;;;;;;;1999.90;999.90;;;16.60;99.90;;;;;;5095998;28;20827;-69
2022/10/27 08:58:37;;;;;;;1999.90;999.90;;;16.60;99.90;;;;;;5095624;28;20423;-67
2022/10/27 09:01:43;;;;;;;1999.90;999.90;;;16.70;99.90;;;;;;5096162;28;20409;-68
2022/10/27 09:04:26;;;;;;;1999.90;999.90;;;16.80;99.90;;;;;;5093289;28;20965;-68
2022/10/27 09:07:12;;;;;;;1999.90;999.90;;;16.80;99.90;;;;;;5095369;28;20522;-68
2022/10/27 09:10:00;;;;;;;1999.90;999.90;;;16.90;99.90;;;;;;5095444;28;20581;-68
2022/10/27 09:12:25;;;;;;;1999.90;999.90;;;17.00;99.90;;;;;;5095633;28;20408;-68
2022/10/27 09:15:16;;;;;;;1999.90;999.90;;;17.00;99.90;;;;;;5096021;28;20842;-68
2022/10/27 09:18:10;;;;;;;1999.90;999.90;;;17.10;99.90;;;;;;5095762;28;20528;-68
2022/10/27 09:20:56;;;;;;;1999.90;999.90;;;17.10;99.90;;;;;;5094761;28;20404;-69
2022/10/27 09:23:28;;;;;;;1999.90;999.90;;;17.30;99.90;;;;;;5094618;28;20465;-69
2022/10/27 09:25:57;;;;;;;1999.90;999.90;;;17.40;99.90;;;;;;5094292;28;20465;-69
2022/10/27 09:28:31;;;;;;;1999.90;999.90;;;17.40;99.90;;;;;;5094170;28;21078;-68
2022/10/27 09:30:58;;;;;;;1999.90;999.90;;;17.50;99.90;;;;;;5094213;28;20399;-68
2022/10/27 09:33:32;;;;;;;1999.90;999.90;;;17.60;99.90;;;;;;5094322;28;20927;-69
2022/10/27 09:36:00;;;;;;;1999.90;999.90;;;17.80;99.90;;;;;;5094501;28;20431;-69
2022/10/27 09:38:27;;;;;;;1999.90;999.90;;;18.00;99.90;;;;;;5093701;28;20435;-69
2022/10/27 09:40:53;;;;;;;1999.90;999.90;;;18.10;99.90;;;;;;5094586;28;20401;-69
2022/10/27 09:43:21;;;;;;;1999.90;999.90;;;18.20;99.90;;;;;;5095365;28;20404;-69
2022/10/27 09:45:54;;;;;;;1999.90;999.90;;;18.30;99.90;;;;;;5095315;28;20461;-68
2022/10/27 09:48:23;;;;;;;1999.90;999.90;;;18.50;99.90;;;;;;5095070;28;20437;-69
2022/10/27 09:50:54;;;;;;;1999.90;999.90;;;18.70;99.90;;;;;;5096151;28;20408;-68
2022/10/27 09:53:46;;;;;;;1999.90;999.90;;;18.80;99.90;;;;;;5095665;28;20393;-68
2022/10/27 09:56:35;;;;;;;1999.90;999.90;;;19.00;99.90;;;;;;5095711;28;20432;-68
2022/10/27 09:59:03;;;;;;;1999.90;999.90;;;19.10;99.90;;;;;;5095432;28;20505;-69
2022/10/27 10:01:38;;;;;;;1999.90;999.90;;;19.20;99.90;;;;;;5095492;28;20846;-69
2022/10/27 10:04:24;;;;;;;1999.90;999.90;;;19.40;99.90;;;;;;5095198;28;20422;-69
2022/10/27 10:06:56;;;;;;;1999.90;999.90;;;19.60;99.90;;;;;;5095358;28;20440;-68
2022/10/27 10:09:28;;;;;;;1999.90;999.90;;;19.60;99.90;;;;;;5095076;28;20911;-69
2022/10/27 10:12:22;;;;;;;1999.90;999.90;;;19.80;99.90;;;;;;5095553;28;20443;-69
2022/10/27 10:14:48;;;;;;;1999.90;999.90;;;20.00;99.90;;;;;;5095044;28;20773;-67
2022/10/27 10:17:25;;;;;;;1999.90;999.90;;;20.10;99.90;;;;;;5093993;28;20399;-67
2022/10/27 10:19:53;;;;;;;1999.90;999.90;;;20.10;99.90;;;;;;5093607;28;20430;-67
2022/10/27 10:22:28;;;;;;;1999.90;999.90;;;20.30;99.90;;;;;;5097348;28;20924;-68
2022/10/27 10:24:56;;;;;;;1999.90;999.90;;;20.40;99.90;;;;;;5098588;28;20410;-67
2022/10/27 10:27:29;;;;;;;1999.90;999.90;;;20.50;99.90;;;;;;5101287;28;20400;-68
2022/10/27 10:29:57;;;;;;;1999.90;999.90;;;20.70;99.90;;;;;;5100947;28;20472;-68
2022/10/27 10:32:33;;;;;;;1999.90;999.90;;;20.80;99.90;;;;;;5100411;28;20405;-66
2022/10/27 10:34:59;;;;;;;1999.90;999.90;;;21.10;99.90;;;;;;5097632;28;20515;-66
2022/10/27 10:37:36;;;;;;;1999.90;999.90;;;21.20;99.90;;;;;;5095386;28;20421;-67
2022/10/27 10:40:25;;;;;;;1999.90;999.90;;;21.30;99.90;;;;;;5096547;28;20406;-66
2022/10/27 10:43:11;;;;;;;1999.90;999.90;;;21.50;99.90;;;;;;5095668;28;20441;-66
2022/10/27 10:45:38;;;;;;;1999.90;999.90;;;21.70;99.90;;;;;;5097116;28;20406;-66
2022/10/27 10:48:14;;;;;;;1999.90;999.90;;;21.80;99.90;;;;;;5096089;28;20439;-66
2022/10/27 10:50:49;;;;;;;1999.90;999.90;;;21.90;99.90;;;;;;5093752;28;20453;-67
2022/10/27 10:53:25;;;;;;;1999.90;999.90;;;22.00;99.90;;;;;;5092764;28;20419;-68
2022/10/27 10:55:54;;;;;;;1999.90;999.90;;;22.00;99.90;;;;;;5092705;28;20404;-67
2022/10/27 10:58:23;;;;;;;1999.90;999.90;;;22.00;99.90;;;;;;5092291;28;20534;-67
2022/10/27 11:00:58;;;;;;;1999.90;999.90;;;22.10;99.90;;;;;;5092073;28;20425;-68
2022/10/27 11:03:28;;;;;;;1999.90;999.90;;;22.10;99.90;;;;;;5092040;28;20437;-67
2022/10/27 11:05:58;;;;;;;1999.90;999.90;;;22.20;99.90;;;;;;5092290;28;20747;-67
2022/10/27 11:08:34;;;;;;;1999.90;999.90;;;22.20;99.90;;;;;;5091277;28;20958;-68
2022/10/27 11:11:02;;;;;;;1999.90;999.90;;;22.30;99.90;;;;;;5090970;28;20410;-68
2022/10/27 11:13:41;;;;;;;1999.90;999.90;;;22.60;99.90;;;;;;5091151;28;20456;-67
2022/10/27 11:16:09;;;;;;;1999.90;999.90;;;22.90;99.90;;;;;;5090679;28;20398;-68
2022/10/27 11:18:43;;;;;;;1999.90;999.90;;;23.30;99.90;;;;;;5091127;28;20480;-68
2022/10/27 11:21:20;;;;;;;1999.90;999.90;;;23.60;99.90;;;;;;5091062;28;20406;-67
2022/10/27 11:23:56;;;;;;;1999.90;999.90;;;24.00;99.90;;;;;;5091049;28;20383;-67
2022/10/27 11:26:29;;;;;;;1999.90;999.90;;;24.40;99.90;;;;;;5090862;28;20400;-67
2022/10/27 11:29:23;;;;;;;1999.90;999.90;;;24.80;99.90;;;;;;5090910;28;20478;-67
2022/10/27 11:32:08;;;;;;;1999.90;999.90;;;25.30;99.90;;;;;;5088073;28;20406;-68
2022/10/27 11:34:44;;;;;;;1999.90;999.90;;;26.00;99.90;;;;;;5094143;28;21058;-68
2022/10/27 11:37:27;;;;;;;1999.90;999.90;;;26.50;99.90;;;;;;5092353;28;20419;-67
2022/10/27 11:40:01;;;;;;;1999.90;999.90;;;26.80;99.90;;;;;;5094085;28;20402;-67
2022/10/27 11:42:44;;;;;;;1999.90;999.90;;;27.00;99.90;;;;;;5094073;28;20804;-68
2022/10/27 11:45:28;;;;;;;1999.90;999.90;;;27.40;99.90;;;;;;5093398;28;20375;-67
2022/10/27 11:48:06;;;;;;;1999.90;999.90;;;27.50;99.90;;;;;;5093250;28;20433;-68
2022/10/27 11:51:22;;;;;;;1999.90;999.90;;;27.80;99.90;;;;;;5093792;28;20501;-68
2022/10/27 11:53:51;;;;;;;1999.90;999.90;;;28.30;99.40;;;;;;5030700;28;20434;-68
2022/10/27 11:56:44;;;;;;;1999.90;999.90;;;28.50;98.30;;;;;;5088484;28;20451;-67
2022/10/27 11:59:28;;;;;;;1999.90;999.90;;;28.50;95.50;;;;;;5093642;28;20432;-66
2022/10/27 12:02:39;;;;;;;1999.90;999.90;;;28.90;91.40;;;;;;5099941;28;20433;-67
2022/10/27 12:05:24;;;;;;;1999.90;999.90;;;29.00;88.00;;;;;;5094349;28;20898;-67
2022/10/27 12:08:15;;;;;;;1999.90;999.90;;;28.90;86.20;;;;;;5057266;28;1104966;-66
2022/10/27 12:10:57;;;;;;;1999.90;999.90;;;28.80;81.80;;;;;;5097455;28;21014;-67
2022/10/27 12:13:45;;;;;;;1999.90;999.90;;;28.30;86.50;;;;;;5094192;28;20502;-68